createdAt,value
2019-05-03T00:00:25.951Z,17.82
2019-05-03T00:02:52.326Z,19.87
2019-05-03T00:05:18.693Z,21.27
2019-05-03T00:07:44.960Z,21.62
2019-05-03T00:10:12.840Z,24.12
2019-05-03T00:12:39.275Z,25.30
2019-05-03T00:15:05.575Z,25.48
2019-05-03T00:17:32.458Z,25.02
2019-05-03T00:19:58.947Z,25.60
2019-05-03T00:22:25.253Z,26.05
2019-05-03T00:25:03.130Z,25.15
2019-05-03T00:27:21.608Z,25.60
2019-05-03T00:29:47.634Z,24.85
2019-05-03T00:32:13.888Z,23.85
2019-05-03T00:34:41.820Z,24.20
2019-05-03T00:37:08.229Z,24.60
2019-05-03T00:39:34.483Z,23.85
2019-05-03T00:42:02.623Z,25.52
2019-05-03T00:44:28.757Z,23.90
2019-05-03T00:46:55.108Z,24.10
2019-05-03T00:49:22.611Z,22.37
2019-05-03T00:51:49.126Z,23.12
2019-05-03T00:54:15.390Z,25.27
2019-05-03T00:56:44.134Z,24.90
2019-05-03T00:59:09.654Z,25.50
2019-05-03T01:01:35.931Z,24.15
2019-05-03T01:04:02.187Z,22.62
2019-05-03T01:06:28.481Z,22.40
2019-05-03T01:08:54.851Z,22.48
2019-05-03T01:11:22.254Z,19.65
2019-05-03T01:13:48.870Z,17.95
2019-05-03T01:16:15.167Z,16.40
2019-05-03T01:18:41.820Z,15.70
2019-05-03T01:21:08.186Z,15.13
2019-05-03T01:23:34.439Z,14.33
2019-05-03T01:26:02.389Z,14.53
2019-05-03T01:28:28.921Z,13.32
2019-05-03T01:30:55.222Z,15.20
2019-05-03T01:33:22.636Z,13.45
2019-05-03T01:35:49.137Z,13.45
2019-05-03T01:38:15.428Z,13.50
2019-05-03T01:40:41.973Z,12.68
2019-05-03T01:43:08.481Z,12.85
2019-05-03T01:45:34.894Z,11.38
2019-05-03T01:48:02.048Z,11.63
2019-05-03T01:50:28.349Z,10.82
2019-05-03T01:52:54.645Z,10.93
2019-05-03T01:55:22.655Z,10.18
2019-05-03T01:57:49.048Z,10.63
2019-05-03T02:00:15.319Z,10.45
2019-05-03T02:02:42.009Z,9.23
2019-05-03T02:05:08.465Z,9.45
2019-05-03T02:07:34.749Z,10.10
2019-05-03T02:10:02.775Z,9.65
2019-05-03T02:12:29.222Z,8.73
2019-05-03T02:14:55.529Z,8.60
2019-05-03T02:17:22.626Z,8.13
2019-05-03T02:19:49.024Z,7.30
2019-05-03T02:22:15.288Z,7.20
2019-05-03T02:24:42.217Z,6.85
2019-05-03T02:27:08.711Z,6.53
2019-05-03T02:29:35.135Z,6.33
2019-05-03T02:32:03.345Z,6.35
2019-05-03T02:34:32.460Z,5.72
2019-05-03T02:36:57.545Z,5.80
2019-05-03T02:39:24.053Z,5.58
2019-05-03T02:41:55.265Z,5.55
2019-05-03T02:44:18.294Z,5.37
2019-05-03T02:46:45.383Z,5.03
2019-05-03T02:49:11.807Z,4.97
2019-05-03T02:51:38.099Z,5.55
2019-05-03T02:54:05.575Z,5.53
2019-05-03T02:56:32.050Z,5.37
2019-05-03T02:58:58.340Z,5.03
2019-05-03T03:01:26.392Z,4.45
2019-05-03T03:03:52.687Z,4.78
2019-05-03T03:06:18.934Z,4.90
2019-05-03T03:08:45.562Z,4.90
2019-05-03T03:11:12.051Z,5.10
2019-05-03T03:13:38.314Z,5.15
2019-05-03T03:16:06.679Z,4.72
2019-05-03T03:18:32.563Z,4.80
2019-05-03T03:20:58.854Z,4.70
2019-05-03T03:23:26.251Z,4.85
2019-05-03T03:25:55.641Z,4.20
2019-05-03T03:28:20.862Z,4.28
2019-05-03T03:30:48.594Z,4.70
2019-05-03T03:33:17.518Z,4.62
2019-05-03T03:35:48.436Z,4.20
2019-05-03T03:38:11.543Z,4.60
2019-05-03T03:40:37.828Z,4.30
2019-05-03T03:43:05.345Z,5.08
2019-05-03T03:45:31.923Z,4.70
2019-05-03T03:47:58.208Z,4.42
2019-05-03T03:50:25.903Z,4.30
2019-05-03T03:52:52.521Z,4.47
2019-05-03T03:55:18.771Z,4.80
2019-05-03T03:57:46.745Z,3.92
2019-05-03T04:00:13.067Z,4.08
2019-05-03T04:02:39.370Z,4.37
2019-05-03T04:05:05.736Z,3.80
2019-05-03T04:07:32.072Z,3.90
2019-05-03T04:09:58.375Z,4.67
2019-05-03T04:12:26.595Z,4.30
2019-05-03T04:14:52.705Z,4.45
2019-05-03T04:17:18.974Z,4.78
2019-05-03T04:19:45.590Z,4.80
2019-05-03T04:22:12.000Z,4.50
2019-05-03T04:24:38.266Z,4.25
2019-05-03T04:27:15.592Z,4.92
2019-05-03T04:29:32.590Z,4.83
2019-05-03T04:31:58.852Z,4.50
2019-05-03T04:34:26.341Z,4.53
2019-05-03T04:36:55.347Z,4.45
2019-05-03T04:39:20.876Z,4.15
2019-05-03T04:41:47.145Z,4.45
2019-05-03T04:44:15.497Z,4.33
2019-05-03T04:46:41.788Z,4.53
2019-05-03T04:49:08.095Z,4.20
2019-05-03T04:51:35.063Z,4.05
2019-05-03T04:54:01.632Z,3.58
2019-05-03T04:56:27.895Z,3.70
2019-05-03T04:58:55.927Z,4.25
2019-05-03T05:01:22.434Z,4.37
2019-05-03T05:03:48.762Z,4.10
2019-05-03T05:06:15.567Z,3.95
2019-05-03T05:08:42.003Z,4.40
2019-05-03T05:11:10.530Z,4.25
2019-05-03T05:13:36.322Z,4.33
2019-05-03T05:16:02.682Z,4.33
2019-05-03T05:18:30.121Z,4.60
2019-05-03T05:20:56.427Z,5.10
2019-05-03T05:23:22.670Z,4.53
2019-05-03T05:25:48.984Z,5.55
2019-05-03T05:28:15.258Z,6.20
2019-05-03T05:30:41.545Z,5.62
2019-05-03T05:33:07.804Z,5.33
2019-05-03T05:35:35.233Z,5.53
2019-05-03T05:38:01.676Z,5.20
2019-05-03T05:40:27.967Z,5.00
2019-05-03T05:42:54.614Z,5.62
2019-05-03T05:45:21.061Z,6.20
2019-05-03T05:47:47.322Z,5.47
2019-05-03T05:50:14.870Z,6.17
2019-05-03T05:52:41.400Z,6.22
2019-05-03T05:55:12.319Z,6.87
2019-05-03T05:57:39.167Z,6.42
2019-05-03T06:00:05.479Z,6.58
2019-05-03T06:02:31.906Z,6.00
2019-05-03T06:04:58.186Z,6.97
2019-05-03T06:07:24.888Z,6.20
2019-05-03T06:09:51.550Z,6.37
2019-05-03T06:12:17.988Z,6.37
2019-05-03T06:14:45.313Z,6.47
2019-05-03T06:17:11.785Z,6.33
2019-05-03T06:19:38.047Z,7.15
2019-05-03T06:22:05.112Z,6.78
2019-05-03T06:24:31.511Z,7.97
2019-05-03T06:26:57.803Z,6.92
2019-05-03T06:29:24.780Z,7.00
2019-05-03T06:31:51.341Z,7.65
2019-05-03T06:34:17.612Z,6.67
2019-05-03T06:36:44.295Z,7.28
2019-05-03T06:39:10.713Z,7.00
2019-05-03T06:41:37.000Z,7.70
2019-05-03T06:44:04.358Z,8.03
2019-05-03T06:46:31.518Z,7.62
2019-05-03T06:49:01.124Z,6.87
2019-05-03T06:51:26.095Z,7.85
2019-05-03T06:53:52.398Z,7.00
2019-05-03T06:56:19.269Z,6.55
2019-05-03T06:58:46.662Z,6.78
2019-05-03T07:01:14.778Z,6.42
2019-05-03T07:03:41.190Z,6.25
2019-05-03T07:06:07.470Z,6.47
2019-05-03T07:08:34.454Z,6.58
2019-05-03T07:11:00.927Z,5.80
2019-05-03T07:13:27.347Z,5.70
2019-05-03T07:15:55.895Z,5.60
2019-05-03T07:18:21.796Z,5.60
2019-05-03T07:20:48.025Z,4.97
2019-05-03T07:23:15.637Z,4.75
2019-05-03T07:25:42.160Z,4.37
2019-05-03T07:28:08.455Z,3.80
2019-05-03T07:30:36.947Z,3.80
2019-05-03T07:33:04.743Z,3.67
2019-05-03T07:35:32.947Z,3.77
2019-05-03T07:37:59.230Z,3.30
2019-05-03T07:40:25.603Z,3.47
2019-05-03T07:42:52.071Z,3.00
2019-05-03T07:45:18.350Z,3.12
2019-05-03T07:47:45.214Z,3.05
2019-05-03T07:50:11.642Z,2.75
2019-05-03T07:52:37.894Z,2.70
2019-05-03T07:55:04.666Z,3.10
2019-05-03T07:57:31.031Z,3.27
2019-05-03T08:00:09.213Z,4.25
2019-05-03T08:02:35.912Z,5.05
2019-05-03T08:05:02.516Z,4.75
2019-05-03T08:07:28.804Z,4.97
2019-05-03T08:09:55.543Z,4.05
2019-05-03T08:12:22.022Z,2.25
2019-05-03T08:14:48.307Z,1.60
2019-05-03T08:17:15.267Z,1.10
2019-05-03T08:19:41.638Z,1.07
2019-05-03T08:22:07.897Z,1.45
2019-05-03T08:24:34.688Z,1.35
2019-05-03T08:27:01.084Z,1.40
2019-05-03T08:29:27.659Z,1.47
2019-05-03T08:31:54.547Z,1.65
2019-05-03T08:34:21.134Z,1.72
2019-05-03T08:36:47.423Z,1.57
2019-05-03T08:39:15.757Z,1.47
2019-05-03T08:41:41.732Z,1.40
2019-05-03T08:44:07.997Z,1.40
2019-05-03T08:46:35.593Z,1.45
2019-05-03T08:49:02.033Z,1.45
2019-05-03T08:51:28.317Z,1.10
2019-05-03T08:53:56.021Z,1.37
2019-05-03T08:56:24.463Z,1.70
2019-05-03T08:58:50.471Z,1.60
2019-05-03T09:01:16.775Z,2.00
2019-05-03T09:03:43.065Z,1.85
2019-05-03T09:06:09.404Z,1.70
2019-05-03T09:08:35.663Z,1.60
2019-05-03T09:11:02.119Z,1.40
2019-05-03T09:13:28.390Z,2.00
2019-05-03T09:15:55.241Z,1.98
2019-05-03T09:18:21.737Z,1.82
2019-05-03T09:20:47.994Z,2.12
2019-05-03T09:23:14.904Z,2.17
2019-05-03T09:25:41.331Z,2.37
2019-05-03T09:28:07.582Z,1.90
2019-05-03T09:30:35.738Z,2.08
2019-05-03T09:33:02.229Z,2.45
2019-05-03T09:35:32.858Z,1.90
2019-05-03T09:37:56.462Z,2.10
2019-05-03T09:40:24.482Z,2.75
2019-05-03T09:42:50.738Z,2.55
2019-05-03T09:45:16.999Z,2.65
2019-05-03T09:47:44.803Z,2.10
2019-05-03T09:50:11.338Z,2.33
2019-05-03T09:52:37.633Z,2.37
2019-05-03T09:55:05.257Z,2.20
2019-05-03T09:57:31.766Z,2.40
2019-05-03T10:00:00.071Z,2.50
2019-05-03T10:02:26.031Z,2.50
2019-05-03T10:04:52.291Z,2.45
2019-05-03T10:07:18.564Z,2.55
2019-05-03T10:09:45.168Z,2.50
2019-05-03T10:12:11.620Z,2.40
2019-05-03T10:14:37.936Z,2.98
2019-05-03T10:17:05.346Z,2.80
2019-05-03T10:19:39.742Z,3.08
2019-05-03T10:21:59.902Z,2.60
2019-05-03T10:24:26.186Z,2.83
2019-05-03T10:26:52.491Z,2.45
2019-05-03T10:29:18.799Z,3.30
2019-05-03T10:31:45.034Z,2.75
2019-05-03T10:34:11.325Z,2.62
2019-05-03T10:36:37.606Z,2.72
2019-05-03T10:39:04.813Z,2.60
2019-05-03T10:41:31.242Z,2.52
2019-05-03T10:43:57.503Z,2.72
2019-05-03T10:46:25.058Z,2.58
2019-05-03T10:48:51.806Z,2.37
2019-05-03T10:51:18.081Z,2.47
2019-05-03T10:53:45.466Z,2.58
2019-05-03T10:56:13.884Z,2.40
2019-05-03T10:58:39.938Z,2.92
2019-05-03T11:01:06.241Z,2.40
2019-05-03T11:03:34.046Z,2.30
2019-05-03T11:06:00.701Z,2.37
2019-05-03T11:08:26.951Z,2.60
2019-05-03T11:10:54.891Z,2.80
2019-05-03T11:13:21.246Z,2.72
2019-05-03T11:15:47.540Z,2.90
2019-05-03T11:18:14.713Z,2.80
2019-05-03T11:20:41.207Z,3.45
2019-05-03T11:23:07.475Z,2.75
2019-05-03T11:25:34.464Z,2.60
2019-05-03T11:28:00.877Z,2.55
2019-05-03T11:30:27.171Z,2.35
2019-05-03T11:32:55.470Z,2.47
2019-05-03T11:35:21.502Z,2.60
2019-05-03T11:37:47.824Z,2.35
2019-05-03T11:40:15.723Z,2.90
2019-05-03T11:42:42.364Z,2.33
2019-05-03T11:45:08.671Z,2.22
2019-05-03T11:47:34.947Z,2.60
2019-05-03T11:50:01.238Z,2.30
2019-05-03T11:52:27.507Z,2.70
2019-05-03T11:54:55.294Z,2.47
2019-05-03T11:57:21.805Z,2.75
2019-05-03T11:59:48.072Z,2.40
2019-05-03T12:02:15.337Z,2.15
2019-05-03T12:04:41.795Z,2.08
2019-05-03T12:07:08.113Z,2.55
2019-05-03T12:09:34.347Z,2.12
2019-05-03T12:12:00.615Z,2.30
2019-05-03T12:14:26.886Z,2.02
2019-05-03T12:17:14.610Z,2.20
2019-05-03T12:19:26.214Z,2.35
2019-05-03T12:21:49.633Z,1.92
2019-05-03T12:24:17.051Z,1.90
2019-05-03T12:26:46.785Z,1.70
2019-05-03T12:29:11.755Z,2.08
2019-05-03T12:31:40.639Z,2.15
2019-05-03T12:34:06.164Z,2.00
2019-05-03T12:36:35.962Z,1.90
2019-05-03T12:39:00.581Z,1.75
2019-05-03T12:41:26.850Z,1.98
2019-05-03T12:43:55.038Z,2.08
2019-05-03T12:46:21.119Z,2.35
2019-05-03T12:48:47.423Z,2.10
2019-05-03T12:51:15.223Z,2.60
2019-05-03T12:53:41.734Z,2.30
2019-05-03T12:56:11.619Z,2.25
2019-05-03T12:58:36.055Z,2.08
2019-05-03T13:01:02.339Z,2.27
2019-05-03T13:03:28.619Z,4.60
2019-05-03T13:05:55.594Z,4.42
2019-05-03T13:08:22.065Z,2.45
2019-05-03T13:10:48.551Z,2.20
2019-05-03T13:13:14.874Z,2.50
2019-05-03T13:15:41.131Z,2.10
2019-05-03T13:18:07.407Z,2.25
2019-05-03T13:20:35.870Z,2.33
2019-05-03T13:23:01.673Z,2.22
2019-05-03T13:25:27.956Z,2.52
2019-05-03T13:27:54.782Z,2.40
2019-05-03T13:30:21.177Z,2.25
2019-05-03T13:32:47.449Z,2.22
2019-05-03T13:35:15.074Z,2.27
2019-05-03T13:37:41.542Z,2.33
2019-05-03T13:40:07.957Z,2.17
2019-05-03T13:42:35.094Z,2.47
2019-05-03T13:45:01.576Z,2.05
2019-05-03T13:47:27.858Z,2.50
2019-05-03T13:49:55.210Z,2.10
2019-05-03T13:52:21.662Z,2.10
2019-05-03T13:54:47.984Z,2.58
2019-05-03T13:57:15.423Z,2.75
2019-05-03T13:59:41.938Z,2.40
2019-05-03T14:02:15.115Z,2.20
2019-05-03T14:04:49.315Z,2.25
2019-05-03T14:07:04.675Z,2.40
2019-05-03T14:09:31.082Z,2.20
2019-05-03T14:11:57.407Z,2.55
2019-05-03T14:14:25.700Z,2.10
2019-05-03T14:16:51.673Z,2.02
2019-05-03T14:19:17.940Z,1.80
2019-05-03T14:21:44.205Z,2.47
2019-05-03T14:24:10.490Z,2.10
2019-05-03T14:26:36.771Z,2.62
2019-05-03T14:29:03.012Z,2.60
2019-05-03T14:31:29.301Z,1.90
2019-05-03T14:33:56.015Z,2.30
2019-05-03T14:36:22.350Z,2.90
2019-05-03T14:38:48.627Z,2.90
2019-05-03T14:41:15.165Z,2.90
2019-05-03T14:43:41.552Z,2.47
2019-05-03T14:46:07.875Z,2.50
2019-05-03T14:48:35.124Z,2.30
2019-05-03T14:51:01.554Z,2.42
2019-05-03T14:53:27.799Z,2.00
2019-05-03T14:55:54.142Z,2.10
2019-05-03T14:58:20.435Z,2.40
2019-05-03T15:00:46.695Z,2.20
2019-05-03T15:03:14.998Z,2.42
2019-05-03T15:05:40.981Z,2.22
2019-05-03T15:08:07.252Z,2.27
2019-05-03T15:10:35.057Z,3.35
2019-05-03T15:13:01.578Z,2.62
2019-05-03T15:15:28.918Z,2.52
2019-05-03T15:17:55.515Z,2.22
2019-05-03T15:20:21.767Z,2.20
2019-05-03T15:22:48.079Z,2.67
2019-05-03T15:25:14.415Z,2.50
2019-05-03T15:27:40.981Z,2.45
2019-05-03T15:30:07.265Z,2.40
2019-05-03T15:32:35.343Z,2.55
2019-05-03T15:35:01.609Z,2.75
2019-05-03T15:37:27.890Z,2.67
2019-05-03T15:39:54.660Z,2.90
2019-05-03T15:42:21.274Z,2.30
2019-05-03T15:44:47.603Z,2.50
2019-05-03T15:47:14.793Z,2.75
2019-05-03T15:49:41.231Z,2.50
2019-05-03T15:52:07.492Z,2.50
2019-05-03T15:54:35.329Z,2.70
2019-05-03T15:57:01.762Z,2.42
2019-05-03T15:59:28.031Z,2.75
2019-05-03T16:01:55.315Z,2.60
2019-05-03T16:04:21.781Z,2.65
2019-05-03T16:06:48.059Z,2.60
2019-05-03T16:09:16.423Z,3.20
2019-05-03T16:11:42.679Z,3.12
2019-05-03T16:14:08.990Z,2.58
2019-05-03T16:16:35.434Z,2.35
2019-05-03T16:19:01.934Z,2.87
2019-05-03T16:21:28.182Z,2.72
2019-05-03T16:23:55.519Z,2.70
2019-05-03T16:26:22.008Z,2.90
2019-05-03T16:28:48.309Z,2.45
2019-05-03T16:31:14.601Z,2.60
2019-05-03T16:33:40.898Z,2.30
2019-05-03T16:36:07.188Z,2.52
2019-05-03T16:38:35.268Z,2.67
2019-05-03T16:41:01.479Z,2.90
2019-05-03T16:43:27.741Z,2.45
2019-05-03T16:45:55.147Z,2.58
2019-05-03T16:48:21.638Z,2.90
2019-05-03T16:50:47.934Z,2.60
2019-05-03T16:53:14.761Z,2.87
2019-05-03T16:55:41.399Z,2.72
2019-05-03T16:58:07.692Z,3.30
2019-05-03T17:00:35.285Z,2.80
2019-05-03T17:03:01.741Z,2.72
2019-05-03T17:05:28.041Z,2.50
2019-05-03T17:07:54.334Z,3.10
2019-05-03T17:10:20.664Z,2.80
2019-05-03T17:12:47.366Z,2.47
2019-05-03T17:15:14.468Z,2.75
2019-05-03T17:17:40.936Z,2.42
2019-05-03T17:20:07.371Z,2.52
2019-05-03T17:22:34.503Z,3.00
2019-05-03T17:25:01.143Z,2.60
2019-05-03T17:27:27.445Z,3.08
2019-05-03T17:29:55.250Z,2.90
2019-05-03T17:32:21.789Z,3.22
2019-05-03T17:34:48.052Z,3.33
2019-05-03T17:37:14.394Z,3.35
2019-05-03T17:39:40.669Z,3.67
2019-05-03T17:42:07.006Z,4.00
2019-05-03T17:44:34.518Z,3.30
2019-05-03T17:47:00.878Z,2.67
2019-05-03T17:49:27.140Z,2.80
2019-05-03T17:51:55.335Z,3.15
2019-05-03T17:54:21.423Z,2.80
2019-05-03T17:56:47.720Z,3.08
2019-05-03T17:59:15.201Z,2.83
2019-05-03T18:01:41.674Z,2.70
2019-05-03T18:04:09.573Z,3.45
2019-05-03T18:06:36.184Z,3.42
2019-05-03T18:09:04.318Z,3.22
2019-05-03T18:11:34.575Z,3.22
2019-05-03T18:14:00.654Z,3.02
2019-05-03T18:16:26.933Z,3.40
2019-05-03T18:18:54.782Z,2.75
2019-05-03T18:21:21.217Z,3.30
2019-05-03T18:23:47.486Z,3.50
2019-05-03T18:26:14.396Z,3.95
2019-05-03T18:28:40.848Z,3.42
2019-05-03T18:31:08.747Z,3.33
2019-05-03T18:33:35.280Z,3.60
2019-05-03T18:36:01.544Z,3.40
2019-05-03T18:38:28.104Z,3.33
2019-05-03T18:40:55.315Z,3.47
2019-05-03T18:43:21.762Z,3.47
2019-05-03T18:45:48.007Z,3.62
2019-05-03T18:48:14.441Z,3.42
2019-05-03T18:50:40.768Z,3.45
2019-05-03T18:53:07.189Z,3.65
2019-05-03T18:55:34.427Z,3.60
2019-05-03T18:58:00.838Z,3.95
2019-05-03T19:00:27.119Z,3.47
2019-05-03T19:02:54.637Z,3.90
2019-05-03T19:05:21.119Z,3.70
2019-05-03T19:07:47.375Z,3.67
2019-05-03T19:10:15.355Z,3.90
2019-05-03T19:12:42.008Z,4.00
2019-05-03T19:15:08.321Z,3.72
2019-05-03T19:17:35.554Z,3.70
2019-05-03T19:20:01.985Z,3.80
2019-05-03T19:22:28.289Z,3.90
2019-05-03T19:24:54.665Z,4.00
2019-05-03T19:27:20.957Z,3.92
2019-05-03T19:29:47.248Z,4.10
2019-05-03T19:32:15.000Z,4.17
2019-05-03T19:34:48.458Z,4.40
2019-05-03T19:37:09.440Z,4.50
2019-05-03T19:39:35.755Z,3.90
2019-05-03T19:42:04.107Z,4.35
2019-05-03T19:44:30.383Z,4.30
2019-05-03T19:46:56.912Z,4.10
2019-05-03T19:49:24.682Z,4.10
2019-05-03T19:51:51.271Z,4.30
2019-05-03T19:54:17.571Z,3.80
2019-05-03T19:56:44.604Z,4.10
2019-05-03T19:59:11.850Z,3.75
2019-05-03T20:01:38.166Z,3.90
2019-05-03T20:04:06.018Z,3.92
2019-05-03T20:06:34.447Z,3.95
2019-05-03T20:09:03.113Z,3.90
2019-05-03T20:11:29.408Z,3.70
2019-05-03T20:13:55.691Z,4.53
2019-05-03T20:16:22.095Z,4.47
2019-05-03T20:18:48.410Z,4.17
2019-05-03T20:21:15.232Z,4.40
2019-05-03T20:23:41.910Z,4.12
2019-05-03T20:26:08.356Z,4.40
2019-05-03T20:28:35.448Z,4.42
2019-05-03T20:31:01.834Z,4.37
2019-05-03T20:33:28.098Z,4.58
2019-05-03T20:35:56.225Z,4.50
2019-05-03T20:38:24.602Z,4.70
2019-05-03T20:40:50.984Z,4.37
2019-05-03T20:43:17.381Z,4.67
2019-05-03T20:45:44.511Z,4.65
2019-05-03T20:48:11.065Z,4.37
2019-05-03T20:50:37.319Z,4.97
2019-05-03T20:53:05.377Z,4.62
2019-05-03T20:55:31.806Z,4.40
2019-05-03T20:57:58.082Z,4.83
2019-05-03T21:00:25.645Z,4.17
2019-05-03T21:02:57.298Z,4.65
2019-05-03T21:05:29.544Z,4.85
2019-05-03T21:07:51.405Z,4.80
2019-05-03T21:10:17.865Z,5.20
2019-05-03T21:12:44.118Z,4.85
2019-05-03T21:15:10.375Z,5.37
2019-05-03T21:17:36.998Z,5.22
2019-05-03T21:20:03.469Z,4.90
2019-05-03T21:22:29.770Z,4.50
2019-05-03T21:24:56.124Z,4.58
2019-05-03T21:27:24.545Z,4.53
2019-05-03T21:29:50.453Z,4.70
2019-05-03T21:32:17.155Z,4.97
2019-05-03T21:34:45.142Z,4.83
2019-05-03T21:37:11.576Z,4.92
2019-05-03T21:39:37.871Z,5.12
2019-05-03T21:42:04.710Z,5.12
2019-05-03T21:44:31.257Z,4.50
2019-05-03T21:46:57.614Z,4.85
2019-05-03T21:49:25.300Z,5.25
2019-05-03T21:51:53.589Z,5.53
2019-05-03T21:54:19.762Z,6.08
2019-05-03T21:56:46.047Z,5.53
2019-05-03T21:59:12.327Z,5.30
2019-05-03T22:01:38.609Z,5.60
2019-05-03T22:04:04.883Z,6.00
2019-05-03T22:06:31.199Z,6.42
2019-05-03T22:08:58.414Z,6.90
2019-05-03T22:11:25.258Z,7.40
2019-05-03T22:13:51.745Z,8.00
2019-05-03T22:16:20.115Z,7.37
2019-05-03T22:18:46.398Z,8.50
2019-05-03T22:21:12.691Z,8.18
2019-05-03T22:23:38.978Z,9.38
2019-05-03T22:26:05.280Z,9.73
2019-05-03T22:28:31.533Z,9.08
2019-05-03T22:30:57.834Z,9.63
2019-05-03T22:33:24.110Z,9.50
2019-05-03T22:35:50.409Z,9.95
2019-05-03T22:38:16.692Z,10.88
2019-05-03T22:40:44.282Z,11.15
2019-05-03T22:43:11.018Z,12.85
2019-05-03T22:45:37.491Z,13.00
2019-05-03T22:48:05.218Z,12.23
2019-05-03T22:50:31.763Z,12.82
2019-05-03T22:52:58.073Z,13.18
2019-05-03T22:55:24.663Z,14.25
2019-05-03T22:57:51.222Z,14.65
2019-05-03T23:00:17.491Z,16.42
2019-05-03T23:02:45.491Z,15.88
2019-05-03T23:05:11.778Z,16.07
2019-05-03T23:07:38.183Z,16.45
2019-05-03T23:10:04.438Z,15.93
2019-05-03T23:12:30.963Z,15.08
2019-05-03T23:14:58.104Z,16.00
2019-05-03T23:17:25.372Z,15.20
2019-05-03T23:19:51.861Z,16.62
2019-05-03T23:22:18.148Z,16.50
2019-05-03T23:24:44.391Z,15.15
2019-05-03T23:27:10.696Z,15.20
2019-05-03T23:29:37.000Z,15.65
2019-05-03T23:32:04.677Z,16.67
2019-05-03T23:34:31.237Z,15.32
2019-05-03T23:36:57.725Z,15.68
2019-05-03T23:39:24.896Z,15.95
2019-05-03T23:41:51.433Z,15.45
2019-05-03T23:44:17.706Z,16.60
2019-05-03T23:46:45.477Z,16.50
2019-05-03T23:49:11.970Z,15.28
2019-05-03T23:51:38.210Z,15.90
2019-05-03T23:54:05.515Z,17.37
2019-05-03T23:56:31.938Z,16.55
2019-05-03T23:58:58.221Z,17.62
